Main page
METAR-TAF:

METAR-TAF

Airports :

Fujairah International Airport

Fujairah, United Arab Emirates

latitude: 25-06N, longitude: 056-20E, elevation: 28 m

Current weather observation

The report was made 17 minutes ago, at 04:00 UTC
Wind 7 kt from the North/Northeast
Temperature 32°C
Humidity 79%
Pressure 1004 hPa
Visibility: 8000 m

METAR: OMFJ 260400Z 03007KT 8000 NSC 32/28 Q1004 A2965

Time: 08:17 (04:17 UTC)

Forecast

The report was made 5 hours and 17 minutes ago, at 23:00 UTC
Forecast valid from 26 at 00 UTC to 27 at 06 UTC
Wind 3 kt from variable directions
Visibility: 7000 m
Becoming
from 26 at 05 UTC to 26 at 07 UTC
Wind 8 kt from the East
Becoming
from 26 at 15 UTC to 26 at 17 UTC
Wind 6 kt from the South/Southeast
Becoming
from 26 at 21 UTC to 26 at 23 UTC
Wind 6 kt from the West/Northwest

TAF: OMFJ 252300Z 2600/2706 VRB03KT 7000 NSC BECMG 2605/2607 09008KT BECMG 2615/2617 16006KT BECMG 2621/2623 29006KT

Weather observations and forecasts of more than 4000 airports (METAR and TAF reports).

The available stations are represented by yellow and red dots on the map.

Hover mouse over dot to see the name of the station.

Then click to see weather observations and forecasts.

To change the map : click on the green buttons with a black cross to zoom in, on the green button with a dash to zoom out, or on the green arrows for adjacent maps.


METAR-TAF: